createdAt,value
2022-10-28T00:01:06.283Z,16.87
2022-10-28T00:03:33.778Z,16.40
2022-10-28T00:06:04.912Z,16.43
2022-10-28T00:08:32.101Z,19.93
2022-10-28T00:11:03.176Z,23.20
2022-10-28T00:13:31.206Z,22.20
2022-10-28T00:16:04.656Z,20.27
2022-10-28T00:18:31.719Z,33.10
2022-10-28T00:21:06.241Z,22.47
2022-10-28T00:23:33.465Z,23.33
2022-10-28T00:26:08.194Z,21.07
2022-10-28T00:28:35.401Z,23.63
2022-10-28T00:31:09.270Z,22.97
2022-10-28T00:33:36.389Z,21.77
2022-10-28T00:36:09.487Z,22.83
2022-10-28T00:38:36.593Z,23.43
2022-10-28T00:41:03.720Z,25.77
2022-10-28T00:43:36.680Z,27.47
2022-10-28T00:46:04.703Z,25.87
2022-10-28T00:48:31.880Z,24.90
2022-10-28T00:50:59.271Z,27.23
2022-10-28T00:53:29.478Z,26.63
2022-10-28T00:55:57.122Z,24.60
2022-10-28T00:58:25.663Z,25.23
2022-10-28T01:00:52.900Z,25.00
2022-10-28T01:03:20.030Z,25.93
2022-10-28T01:05:47.998Z,26.17
2022-10-28T01:08:15.144Z,24.13
2022-10-28T01:10:49.902Z,29.27
2022-10-28T01:13:24.719Z,24.43
2022-10-28T01:16:08.134Z,24.43
2022-10-28T01:18:41.214Z,24.10
2022-10-28T01:21:08.320Z,22.27
2022-10-28T01:23:41.300Z,23.20
2022-10-28T01:26:08.342Z,24.43
2022-10-28T01:28:50.903Z,22.70
2022-10-28T01:31:17.981Z,22.53
2022-10-28T01:33:51.892Z,19.87
2022-10-28T01:36:25.552Z,20.77
2022-10-28T01:38:56.813Z,21.80
2022-10-28T01:41:34.061Z,19.03
2022-10-28T01:44:05.845Z,19.43
2022-10-28T01:46:39.457Z,18.43
2022-10-28T01:49:10.554Z,20.30
2022-10-28T01:51:52.793Z,18.73
2022-10-28T01:54:20.947Z,17.93
2022-10-28T01:56:49.032Z,15.70
2022-10-28T01:59:21.691Z,14.87
2022-10-28T02:01:48.911Z,17.17
2022-10-28T02:04:16.161Z,18.50
2022-10-28T02:06:44.942Z,14.73
2022-10-28T02:09:17.967Z,17.10
2022-10-28T02:11:51.733Z,17.47
2022-10-28T02:14:39.291Z,19.37
2022-10-28T02:17:06.364Z,17.03
2022-10-28T02:19:50.197Z,17.10
2022-10-28T02:22:36.134Z,18.63
2022-10-28T02:25:08.259Z,18.63
2022-10-28T02:27:35.347Z,17.80
2022-10-28T02:30:05.478Z,19.50
2022-10-28T02:32:34.944Z,19.53
2022-10-28T02:35:03.131Z,18.83
2022-10-28T02:37:34.508Z,19.17
2022-10-28T02:40:05.022Z,16.70
2022-10-28T02:42:34.753Z,18.63
2022-10-28T02:45:07.057Z,18.97
2022-10-28T02:47:36.651Z,17.37
2022-10-28T02:50:08.083Z,20.63
2022-10-28T02:52:35.415Z,19.70
2022-10-28T02:55:05.102Z,23.60
2022-10-28T02:57:36.736Z,21.53
2022-10-28T03:00:08.631Z,19.00
2022-10-28T03:02:35.806Z,20.67
2022-10-28T03:05:03.563Z,19.23
2022-10-28T03:07:30.660Z,18.57
2022-10-28T03:09:57.746Z,16.47
2022-10-28T03:12:24.837Z,20.50
2022-10-28T03:14:51.942Z,15.93
2022-10-28T03:17:19.002Z,17.93
2022-10-28T03:19:46.157Z,20.07
2022-10-28T03:22:13.323Z,19.27
2022-10-28T03:24:40.443Z,18.23
2022-10-28T03:27:07.536Z,18.33
2022-10-28T03:29:34.595Z,17.13
2022-10-28T03:32:01.664Z,16.13
2022-10-28T03:34:28.793Z,14.40
2022-10-28T03:36:55.888Z,14.37
2022-10-28T03:39:22.944Z,14.63
2022-10-28T03:41:50.091Z,14.80
2022-10-28T03:44:17.161Z,13.50
2022-10-28T03:46:44.318Z,12.73
2022-10-28T03:49:11.384Z,11.90
2022-10-28T03:51:38.483Z,11.50
2022-10-28T03:54:05.600Z,13.00
2022-10-28T03:56:32.683Z,12.60
2022-10-28T03:58:59.748Z,13.27
2022-10-28T04:01:27.012Z,12.60
2022-10-28T04:03:54.128Z,13.10
2022-10-28T04:06:21.225Z,14.30
2022-10-28T04:08:48.325Z,13.60
2022-10-28T04:11:15.403Z,14.57
2022-10-28T04:13:42.521Z,14.83
2022-10-28T04:16:09.581Z,15.57
2022-10-28T04:18:36.707Z,14.97
2022-10-28T04:21:04.186Z,18.17
2022-10-28T04:23:31.307Z,13.53
2022-10-28T04:25:58.396Z,17.53
2022-10-28T04:28:25.488Z,15.17
2022-10-28T04:30:52.743Z,15.03
2022-10-28T04:33:19.799Z,14.27
2022-10-28T04:35:46.894Z,14.50
2022-10-28T04:38:15.295Z,13.97
2022-10-28T04:40:42.529Z,14.00
2022-10-28T04:43:11.676Z,13.13
2022-10-28T04:45:39.373Z,12.80
2022-10-28T04:48:06.699Z,12.40
2022-10-28T04:50:33.785Z,11.63
2022-10-28T04:53:00.961Z,12.10
2022-10-28T04:55:28.026Z,12.27
2022-10-28T04:57:55.886Z,12.27
2022-10-28T05:00:23.426Z,12.53
2022-10-28T05:02:50.769Z,12.77
2022-10-28T05:05:18.419Z,13.73
2022-10-28T05:07:45.723Z,14.23
2022-10-28T05:10:15.396Z,14.43
2022-10-28T05:12:43.209Z,15.47
2022-10-28T05:15:11.081Z,15.47
2022-10-28T05:17:44.884Z,16.63
2022-10-28T05:20:12.714Z,16.03
2022-10-28T05:22:45.603Z,15.87
2022-10-28T05:25:12.723Z,17.37
2022-10-28T05:27:39.826Z,16.53
2022-10-28T05:30:07.333Z,16.00
2022-10-28T05:32:34.391Z,16.27
2022-10-28T05:35:01.562Z,14.60
2022-10-28T05:37:28.664Z,15.07
2022-10-28T05:39:55.799Z,15.30
2022-10-28T05:42:22.905Z,14.57
2022-10-28T05:44:49.964Z,13.70
2022-10-28T05:47:17.034Z,13.77
2022-10-28T05:49:44.087Z,14.33
2022-10-28T05:52:11.274Z,16.57
2022-10-28T05:54:38.337Z,13.80
2022-10-28T05:57:05.402Z,13.43
2022-10-28T05:59:32.546Z,12.90
2022-10-28T06:01:59.704Z,12.83
2022-10-28T06:04:26.935Z,11.20
2022-10-28T06:06:56.011Z,11.47
2022-10-28T06:09:23.231Z,11.80
2022-10-28T06:11:48.743Z,12.57
2022-10-28T06:14:15.839Z,11.93
2022-10-28T06:16:42.898Z,12.53
2022-10-28T06:19:10.053Z,12.57
2022-10-28T06:21:37.141Z,12.97
2022-10-28T06:24:06.590Z,13.73
2022-10-28T06:26:34.673Z,14.37
2022-10-28T06:29:01.755Z,13.90
2022-10-28T06:31:28.928Z,11.87
2022-10-28T06:33:56.326Z,13.83
2022-10-28T06:36:23.520Z,13.17
2022-10-28T06:38:52.614Z,11.90
2022-10-28T06:41:19.712Z,11.80
2022-10-28T06:43:46.983Z,11.50
2022-10-28T06:46:14.152Z,11.13
2022-10-28T06:48:42.765Z,11.30
2022-10-28T06:51:09.983Z,11.33
2022-10-28T06:53:37.069Z,10.43
2022-10-28T06:56:04.239Z,10.80
2022-10-28T06:58:31.356Z,13.30
2022-10-28T07:01:03.587Z,17.30
2022-10-28T07:03:32.916Z,16.10
2022-10-28T07:06:00.314Z,14.83
2022-10-28T07:08:27.751Z,15.00
2022-10-28T07:10:58.539Z,15.90
2022-10-28T07:13:25.661Z,15.23
2022-10-28T07:15:53.202Z,17.93
2022-10-28T07:18:20.436Z,19.23
2022-10-28T07:20:47.755Z,16.57
2022-10-28T07:23:14.823Z,16.33
2022-10-28T07:25:42.210Z,15.60
2022-10-28T07:28:09.396Z,15.23
2022-10-28T07:30:36.485Z,17.43
2022-10-28T07:33:05.245Z,15.20
2022-10-28T07:35:32.507Z,16.00
2022-10-28T07:37:59.810Z,17.87
2022-10-28T07:40:26.925Z,17.37
2022-10-28T07:42:54.174Z,15.90
2022-10-28T07:45:21.402Z,14.57
2022-10-28T07:47:48.483Z,13.80
2022-10-28T07:50:15.616Z,12.90
2022-10-28T07:52:42.797Z,10.97
2022-10-28T07:55:10.923Z,10.90
2022-10-28T07:57:38.458Z,10.63
2022-10-28T08:00:06.341Z,10.40
2022-10-28T08:02:33.524Z,7.57
2022-10-28T08:05:01.965Z,7.72
2022-10-28T08:07:29.195Z,9.65
2022-10-28T08:09:56.266Z,9.18
2022-10-28T08:12:23.319Z,8.48
2022-10-28T08:14:50.448Z,7.85
2022-10-28T08:17:17.548Z,9.95
2022-10-28T08:19:44.706Z,10.43
2022-10-28T08:22:11.787Z,10.30
2022-10-28T08:24:38.880Z,10.80
2022-10-28T08:27:06.046Z,11.18
2022-10-28T08:29:33.446Z,11.10
2022-10-28T08:32:00.566Z,10.13
2022-10-28T08:34:29.932Z,9.40
2022-10-28T08:36:57.615Z,9.55
2022-10-28T08:39:24.960Z,9.23
2022-10-28T08:41:57.076Z,8.85
2022-10-28T08:44:37.892Z,9.13
2022-10-28T08:47:08.002Z,8.13
2022-10-28T08:49:37.160Z,8.00
2022-10-28T08:52:21.423Z,8.15
2022-10-28T08:54:54.472Z,9.27
2022-10-28T08:57:22.786Z,8.32
2022-10-28T08:59:52.933Z,8.90
2022-10-28T09:02:24.109Z,8.15
2022-10-28T09:05:05.831Z,8.05
2022-10-28T09:07:34.349Z,8.35
2022-10-28T09:10:01.484Z,8.77
2022-10-28T09:12:28.650Z,8.57
2022-10-28T09:14:56.119Z,8.80
2022-10-28T09:17:29.200Z,9.65
2022-10-28T09:20:04.374Z,8.80
2022-10-28T09:22:31.453Z,9.07
2022-10-28T09:24:58.524Z,8.90
2022-10-28T09:27:30.650Z,9.35
2022-10-28T09:30:15.055Z,9.45
2022-10-28T09:32:46.152Z,9.65
2022-10-28T09:35:18.293Z,9.45
2022-10-28T09:38:11.594Z,9.90
2022-10-28T09:40:41.466Z,11.45
2022-10-28T09:43:20.855Z,9.68
2022-10-28T09:45:48.931Z,10.95
2022-10-28T09:48:22.129Z,9.00
2022-10-28T09:50:51.172Z,9.98
2022-10-28T09:53:35.954Z,8.88
2022-10-28T09:56:03.731Z,8.23
2022-10-28T09:58:30.923Z,7.45
2022-10-28T10:00:58.049Z,7.47
2022-10-28T10:03:25.240Z,7.50
2022-10-28T10:05:54.265Z,7.25
2022-10-28T10:08:22.621Z,7.15
2022-10-28T10:10:52.954Z,7.30
2022-10-28T10:13:22.870Z,7.18
2022-10-28T10:15:53.388Z,6.30
2022-10-28T10:18:29.009Z,5.82
2022-10-28T10:20:58.592Z,6.38
2022-10-28T10:23:33.037Z,6.72
2022-10-28T10:26:06.681Z,6.57
2022-10-28T10:28:38.009Z,6.38
2022-10-28T10:31:06.170Z,6.57
2022-10-28T10:33:35.403Z,6.35
2022-10-28T10:36:05.028Z,5.88
2022-10-28T10:38:32.752Z,5.90
2022-10-28T10:41:00.172Z,4.95
2022-10-28T10:43:34.529Z,5.97
2022-10-28T10:46:06.360Z,5.80
2022-10-28T10:48:36.258Z,6.13
2022-10-28T10:51:23.696Z,5.80
2022-10-28T10:53:52.760Z,6.57
2022-10-28T10:56:27.553Z,6.78
2022-10-28T10:58:56.038Z,6.70
2022-10-28T11:01:28.146Z,7.13
2022-10-28T11:06:31.509Z,7.50
2022-10-28T11:09:00.694Z,6.55
2022-10-28T11:11:38.330Z,6.88
2022-10-28T11:14:13.324Z,6.50
2022-10-28T11:16:49.665Z,7.03
2022-10-28T11:19:21.996Z,6.50
2022-10-28T11:22:07.713Z,6.40
2022-10-28T11:24:55.470Z,6.45
2022-10-28T11:27:41.555Z,6.25
2022-10-28T11:30:12.796Z,6.68
2022-10-28T11:33:08.412Z,6.40
2022-10-28T11:35:54.758Z,6.30
2022-10-28T11:38:27.644Z,5.72
2022-10-28T11:40:57.480Z,5.53
2022-10-28T11:43:27.331Z,5.60
2022-10-28T11:46:06.325Z,5.72
2022-10-28T11:48:51.945Z,5.80
2022-10-28T11:51:19.061Z,5.60
2022-10-28T11:53:53.616Z,5.20
2022-10-28T11:56:23.640Z,6.00
2022-10-28T11:59:16.794Z,6.43
2022-10-28T12:02:02.251Z,5.85
2022-10-28T12:04:32.384Z,5.65
2022-10-28T12:06:59.515Z,6.47
2022-10-28T12:09:45.440Z,6.22
2022-10-28T12:12:20.046Z,6.13
2022-10-28T12:14:47.102Z,7.07
2022-10-28T12:17:14.607Z,6.55
2022-10-28T12:20:01.962Z,8.18
2022-10-28T12:22:32.211Z,7.55
2022-10-28T12:25:02.646Z,7.80
2022-10-28T12:27:31.822Z,7.85
2022-10-28T12:30:10.290Z,7.90
2022-10-28T12:32:38.547Z,7.45
2022-10-28T12:35:15.252Z,9.02
2022-10-28T12:38:02.554Z,7.68
2022-10-28T12:40:36.153Z,8.18
2022-10-28T12:43:25.096Z,7.47
2022-10-28T12:45:54.350Z,6.32
2022-10-28T12:48:33.762Z,7.10
2022-10-28T12:51:09.683Z,6.97
2022-10-28T12:53:42.766Z,6.72
2022-10-28T12:56:24.922Z,6.03
2022-10-28T12:58:55.594Z,5.55
2022-10-28T13:01:25.114Z,6.45
2022-10-28T13:03:52.854Z,5.45
2022-10-28T13:06:19.923Z,6.20
2022-10-28T13:08:47.055Z,5.97
2022-10-28T13:11:20.254Z,7.60
2022-10-28T13:14:13.321Z,6.35
2022-10-28T13:16:59.306Z,7.75
2022-10-28T13:19:36.679Z,7.10
2022-10-28T13:22:03.759Z,6.05
2022-10-28T13:24:43.097Z,5.30
2022-10-28T13:27:12.920Z,5.22
2022-10-28T13:29:41.171Z,6.10
2022-10-28T13:32:24.184Z,5.20
2022-10-28T13:34:51.313Z,5.28
2022-10-28T13:37:20.833Z,5.32
2022-10-28T13:39:48.215Z,6.55
2022-10-28T13:42:16.000Z,4.88
2022-10-28T13:44:52.285Z,5.07
2022-10-28T13:47:35.435Z,4.75
2022-10-28T13:50:08.776Z,5.13
2022-10-28T13:52:37.002Z,5.15
2022-10-28T13:55:22.860Z,5.00
2022-10-28T13:57:52.140Z,4.97
2022-10-28T14:00:20.132Z,5.07
2022-10-28T14:02:48.784Z,5.03
2022-10-28T14:05:17.313Z,5.43
2022-10-28T14:08:01.097Z,4.65
2022-10-28T14:10:29.456Z,4.63
2022-10-28T14:12:59.547Z,4.35
2022-10-28T14:15:29.393Z,4.57
2022-10-28T14:18:09.924Z,4.40
2022-10-28T14:20:43.315Z,4.50
2022-10-28T14:23:22.813Z,3.90
2022-10-28T14:25:56.264Z,4.55
2022-10-28T14:28:29.734Z,3.97
2022-10-28T14:31:11.772Z,4.20
2022-10-28T14:33:45.151Z,4.55
2022-10-28T14:36:15.045Z,4.43
2022-10-28T14:38:54.104Z,5.28
2022-10-28T14:41:27.281Z,4.68
2022-10-28T14:44:02.341Z,4.28
2022-10-28T14:46:32.792Z,4.05
2022-10-28T14:49:01.296Z,4.18
2022-10-28T14:51:30.752Z,4.07
2022-10-28T14:53:59.568Z,4.53
2022-10-28T14:56:28.263Z,4.75
2022-10-28T14:58:58.243Z,5.00
2022-10-28T15:01:27.084Z,4.40
2022-10-28T15:03:59.700Z,4.60
2022-10-28T15:06:28.826Z,4.05
2022-10-28T15:08:56.498Z,4.20
2022-10-28T15:11:23.766Z,4.20
2022-10-28T15:13:53.985Z,3.92
2022-10-28T15:16:22.333Z,3.50
2022-10-28T15:18:50.573Z,3.42
2022-10-28T15:21:19.108Z,3.85
2022-10-28T15:23:47.602Z,3.70
2022-10-28T15:26:18.885Z,3.78
2022-10-28T15:28:45.977Z,3.85
2022-10-28T15:31:13.070Z,3.70
2022-10-28T15:33:43.433Z,3.90
2022-10-28T15:36:17.752Z,3.58
2022-10-28T15:38:46.584Z,3.80
2022-10-28T15:41:22.828Z,4.00
2022-10-28T15:43:57.022Z,4.20
2022-10-28T15:46:24.748Z,3.42
2022-10-28T15:48:52.446Z,3.90
2022-10-28T15:51:20.252Z,3.45
2022-10-28T15:53:47.292Z,3.90
2022-10-28T15:56:14.377Z,3.97
2022-10-28T15:58:45.264Z,4.25
2022-10-28T16:01:51.003Z,4.30
2022-10-28T16:04:23.792Z,3.80
2022-10-28T16:07:07.047Z,7.63
2022-10-28T16:09:38.396Z,4.43
2022-10-28T16:12:18.209Z,3.85
2022-10-28T16:14:50.680Z,4.25
2022-10-28T16:17:27.012Z,4.23
2022-10-28T16:19:59.115Z,5.45
2022-10-28T16:22:27.940Z,481.20
2022-10-28T16:24:55.152Z,598.87
2022-10-28T16:27:26.461Z,215.03
2022-10-28T16:29:53.739Z,41.73
2022-10-28T16:32:23.385Z,7.47
2022-10-28T16:34:50.505Z,10.33
2022-10-28T16:37:20.889Z,240.20
2022-10-28T16:39:48.039Z,42.50
2022-10-28T16:42:15.323Z,14.23
2022-10-28T16:44:42.411Z,8.60
2022-10-28T16:47:13.564Z,7.80
2022-10-28T16:49:44.078Z,10.03
2022-10-28T16:52:16.120Z,8.57
2022-10-28T16:54:43.344Z,7.10
2022-10-28T16:57:10.472Z,6.00
2022-10-28T16:59:37.674Z,5.40
2022-10-28T17:02:05.591Z,5.70
2022-10-28T17:04:32.832Z,5.33
2022-10-28T17:06:59.923Z,4.50
2022-10-28T17:09:27.030Z,4.40
2022-10-28T17:11:54.121Z,4.33
2022-10-28T17:14:21.217Z,4.20
2022-10-28T17:16:48.318Z,4.53
2022-10-28T17:19:15.491Z,5.00
2022-10-28T17:21:43.175Z,4.53
2022-10-28T17:24:10.329Z,4.50
2022-10-28T17:26:37.402Z,4.70
2022-10-28T17:29:04.499Z,4.80
2022-10-28T17:31:31.578Z,4.67
2022-10-28T17:33:58.848Z,5.20
2022-10-28T17:36:25.951Z,5.20
2022-10-28T17:38:53.071Z,4.97
2022-10-28T17:41:20.174Z,5.97
2022-10-28T17:43:47.232Z,7.63
2022-10-28T17:46:14.361Z,8.40
2022-10-28T17:48:41.549Z,8.03
2022-10-28T17:51:08.658Z,8.47
2022-10-28T17:53:35.709Z,7.77
2022-10-28T17:56:04.155Z,8.07
2022-10-28T17:58:31.718Z,8.23
2022-10-28T18:00:59.492Z,7.87
2022-10-28T18:03:26.768Z,7.07
2022-10-28T18:05:54.017Z,6.27
2022-10-28T18:08:21.474Z,6.93
2022-10-28T18:10:55.792Z,5.77
2022-10-28T18:13:30.315Z,5.40
2022-10-28T18:15:58.003Z,4.63
2022-10-28T18:18:28.121Z,4.53
2022-10-28T18:20:55.728Z,4.73
2022-10-28T18:23:25.944Z,4.00
2022-10-28T18:25:59.691Z,4.03
2022-10-28T18:28:27.617Z,4.23
2022-10-28T18:30:54.735Z,4.23
2022-10-28T18:33:22.026Z,4.30
2022-10-28T18:35:49.180Z,4.27
2022-10-28T18:38:16.245Z,4.20
2022-10-28T18:40:47.240Z,4.00
2022-10-28T18:43:15.041Z,3.83
2022-10-28T18:45:42.204Z,3.80
2022-10-28T18:48:09.310Z,3.80
2022-10-28T18:50:36.396Z,4.07
2022-10-28T18:53:03.924Z,4.23
2022-10-28T18:55:31.072Z,3.77
2022-10-28T18:57:58.190Z,4.40
2022-10-28T19:00:25.415Z,4.23
2022-10-28T19:05:24.964Z,4.10
2022-10-28T19:07:52.705Z,3.80
2022-10-28T19:10:20.065Z,4.50
2022-10-28T19:12:52.038Z,3.90
2022-10-28T19:15:20.199Z,4.30
2022-10-28T19:17:47.261Z,3.57
2022-10-28T19:20:14.477Z,3.97
2022-10-28T19:22:41.653Z,3.90
2022-10-28T19:25:08.880Z,3.50
2022-10-28T19:27:35.995Z,4.00
2022-10-28T19:30:06.464Z,3.90
2022-10-28T19:32:38.499Z,4.73
2022-10-28T19:35:05.865Z,5.63
2022-10-28T19:37:32.950Z,6.63
2022-10-28T19:40:00.108Z,9.43
2022-10-28T19:42:27.356Z,10.57
2022-10-28T19:44:54.505Z,10.33
2022-10-28T19:47:21.621Z,9.43
2022-10-28T19:49:48.668Z,9.40
2022-10-28T19:52:16.179Z,9.70
2022-10-28T19:54:43.325Z,9.23
2022-10-28T19:59:43.487Z,7.47
2022-10-28T20:02:11.369Z,7.17
2022-10-28T20:04:39.335Z,6.50
2022-10-28T20:07:06.413Z,6.80
2022-10-28T20:09:33.677Z,6.23
2022-10-28T20:12:01.843Z,8.00
2022-10-28T20:14:29.177Z,8.60
2022-10-28T20:16:56.332Z,7.23
2022-10-28T20:19:23.409Z,7.53
2022-10-28T20:21:50.878Z,7.30
2022-10-28T20:24:18.229Z,6.60
2022-10-28T20:26:45.405Z,7.23
2022-10-28T20:29:12.506Z,6.77
2022-10-28T20:31:39.593Z,6.23
2022-10-28T20:34:06.874Z,6.97
2022-10-28T20:36:35.304Z,6.43
2022-10-28T20:39:04.224Z,7.10
2022-10-28T20:41:33.339Z,6.87
2022-10-28T20:44:01.590Z,7.77
2022-10-28T20:46:28.988Z,7.70
2022-10-28T20:48:56.736Z,7.10
2022-10-28T20:51:25.114Z,8.77
2022-10-28T20:53:52.192Z,7.73
2022-10-28T20:56:20.688Z,8.40
2022-10-28T20:58:47.992Z,8.73
2022-10-28T21:01:16.618Z,10.43
2022-10-28T21:03:44.490Z,10.20
2022-10-28T21:08:44.814Z,10.40
2022-10-28T21:11:14.172Z,10.40
2022-10-28T21:13:41.442Z,10.50
2022-10-28T21:16:09.615Z,10.13
2022-10-28T21:18:37.354Z,10.10
2022-10-28T21:21:04.448Z,10.00
2022-10-28T21:23:31.535Z,10.50
2022-10-28T21:26:02.478Z,11.67
2022-10-28T21:28:30.310Z,12.23
2022-10-28T21:31:00.938Z,13.77
2022-10-28T21:33:28.541Z,13.07
2022-10-28T21:35:56.889Z,10.93
2022-10-28T21:38:24.238Z,10.47
2022-10-28T21:40:58.652Z,10.30
2022-10-28T21:43:29.609Z,10.40
2022-10-28T21:45:56.671Z,10.40
2022-10-28T21:48:24.007Z,10.40
2022-10-28T21:50:51.876Z,10.60
2022-10-28T21:53:19.161Z,10.60
2022-10-28T21:55:47.717Z,10.27
2022-10-28T21:58:16.725Z,9.93
2022-10-28T22:00:44.057Z,10.53
2022-10-28T22:03:11.811Z,12.47
2022-10-28T22:05:39.035Z,13.80
2022-10-28T22:08:06.140Z,13.70
2022-10-28T22:10:33.217Z,12.40
2022-10-28T22:13:00.338Z,14.20
2022-10-28T22:15:27.412Z,13.23
2022-10-28T22:17:54.852Z,10.93
2022-10-28T22:20:22.195Z,10.37
2022-10-28T22:22:49.354Z,9.67
2022-10-28T22:25:16.483Z,10.33
2022-10-28T22:27:45.018Z,10.87
2022-10-28T22:30:13.087Z,10.60
2022-10-28T22:32:40.708Z,10.83
2022-10-28T22:35:08.092Z,12.30
2022-10-28T22:37:35.210Z,11.93
2022-10-28T22:40:02.321Z,10.63
2022-10-28T22:42:29.392Z,10.83
2022-10-28T22:44:56.439Z,10.97
2022-10-28T22:47:23.547Z,10.93
2022-10-28T22:49:50.669Z,10.47
2022-10-28T22:52:17.763Z,12.57
2022-10-28T22:54:44.851Z,11.80
2022-10-28T22:57:11.938Z,11.23
2022-10-28T22:59:38.988Z,11.23
2022-10-28T23:02:06.284Z,11.63
2022-10-28T23:04:33.453Z,11.00
2022-10-28T23:07:00.557Z,11.10
2022-10-28T23:09:27.747Z,11.37
2022-10-28T23:11:54.863Z,11.47
2022-10-28T23:14:21.917Z,12.00
2022-10-28T23:16:49.323Z,11.50
2022-10-28T23:19:16.408Z,10.80
2022-10-28T23:21:43.498Z,11.67
2022-10-28T23:24:11.072Z,12.03
2022-10-28T23:26:38.261Z,10.87
2022-10-28T23:29:05.406Z,13.77
2022-10-28T23:31:32.477Z,13.87
2022-10-28T23:33:59.864Z,12.30
2022-10-28T23:36:26.973Z,11.37
2022-10-28T23:38:56.372Z,11.77
2022-10-28T23:41:23.504Z,11.37
2022-10-28T23:43:50.749Z,12.33
2022-10-28T23:46:18.595Z,12.60
2022-10-28T23:48:45.737Z,12.57
2022-10-28T23:51:12.910Z,12.83
2022-10-28T23:53:40.003Z,12.23
2022-10-28T23:56:07.415Z,12.87
2022-10-28T23:58:34.505Z,13.00
